Time;durP1;ratioP1;P1;durP2;ratioP2;P2;SDS_P1;SDS_P2;PMS_P1;PMS_P2;Temp;Humidity;BMP_temperature;BMP_pressure;BME280_temperature;BME280_humidity;BME280_pressure;Samples;Min_cycle;Max_cycle;Signal;HPM_P1;HPM_P2
2023/03/13 00:03:01;;;;;;;10.90;4.60;;;;;;;4.90;100.00;100285.25;31363567;28;20110;-74
2023/03/13 00:18:03;;;;;;;5.70;3.93;;;;;;;4.67;100.00;100313.13;31358052;28;20053;-75
2023/03/13 00:33:05;;;;;;;8.30;4.13;;;;;;;4.44;100.00;100307.97;31338219;28;20061;-73
2023/03/13 00:48:07;;;;;;;8.37;3.90;;;;;;;4.54;100.00;100317.25;31321086;28;20509;-73
2023/03/13 01:03:09;;;;;;;6.67;3.73;;;;;;;4.83;100.00;100341.66;31345903;28;20114;-74
2023/03/13 01:18:14;;;;;;;5.57;3.00;;;;;;;4.78;100.00;100369.69;31349816;28;20067;-74
2023/03/13 01:33:16;;;;;;;7.27;3.83;;;;;;;4.52;100.00;100388.66;31350185;28;20075;-75
2023/03/13 01:48:21;;;;;;;4.60;3.10;;;;;;;4.52;100.00;100410.16;31315545;28;20049;-76
2023/03/13 02:03:24;;;;;;;13.33;3.50;;;;;;;4.51;100.00;100440.88;31340975;28;20083;-74
2023/03/13 02:18:26;;;;;;;4.73;3.47;;;;;;;4.40;100.00;100460.38;31339029;28;20106;-74
2023/03/13 02:33:34;;;;;;;5.77;3.23;;;;;;;4.28;100.00;100500.16;31342319;28;20057;-73
2023/03/13 02:48:45;;;;;;;6.77;3.53;;;;;;;4.20;100.00;100518.13;31332523;28;20521;-74
2023/03/13 03:03:47;;;;;;;5.23;3.60;;;;;;;4.09;100.00;100533.31;31323288;28;20049;-74
2023/03/13 03:18:49;;;;;;;7.93;4.27;;;;;;;3.91;100.00;100559.16;31310799;28;20102;-75
2023/03/13 03:33:51;;;;;;;6.90;3.83;;;;;;;4.08;100.00;100574.75;31356703;28;20175;-74
2023/03/13 03:48:53;;;;;;;10.80;4.50;;;;;;;4.07;100.00;100594.69;31335232;28;20061;-73
2023/03/13 04:03:55;;;;;;;6.60;3.60;;;;;;;4.18;100.00;100619.81;31343668;28;20061;-74
2023/03/13 04:18:57;;;;;;;7.03;3.97;;;;;;;4.15;100.00;100644.72;31350060;28;20049;-74
2023/03/13 04:33:59;;;;;;;7.13;3.67;;;;;;;4.39;100.00;100667.72;31321907;28;20053;-75
2023/03/13 04:49:01;;;;;;;6.83;4.07;;;;;;;4.86;100.00;100687.94;31338405;28;20091;-75
2023/03/13 05:04:04;;;;;;;5.33;3.90;;;;;;;5.17;100.00;100716.41;31339979;28;20118;-75
2023/03/13 05:19:06;;;;;;;5.53;4.10;;;;;;;5.98;100.00;100740.75;31336078;28;20040;-75
2023/03/13 05:34:08;;;;;;;5.80;3.47;;;;;;;6.76;100.00;100757.53;31331657;28;20084;-75
2023/03/13 05:49:10;;;;;;;5.40;3.10;;;;;;;7.60;100.00;100799.59;31325979;28;20083;-75
2023/03/13 06:04:12;;;;;;;5.10;3.80;;;;;;;8.94;100.00;100803.63;31343783;28;20049;-76
2023/03/13 06:19:14;;;;;;;6.93;4.13;;;;;;;9.98;95.50;100820.25;31334688;28;20139;-74
2023/03/13 06:34:17;;;;;;;5.07;3.37;;;;;;;10.90;83.68;100846.72;31308685;28;20041;-80
2023/03/13 06:49:19;;;;;;;5.83;3.70;;;;;;;11.13;79.41;100876.00;31331431;28;20096;-74
2023/03/13 07:04:20;;;;;;;4.30;3.40;;;;;;;11.89;74.89;100889.19;31358700;28;20102;-75
2023/03/13 07:19:22;;;;;;;10.30;4.63;;;;;;;12.44;69.52;100890.00;31327524;28;20041;-76
2023/03/13 07:34:24;;;;;;;5.63;2.93;;;;;;;12.95;61.81;100905.16;31366332;28;20494;-75
2023/03/13 07:49:26;;;;;;;4.97;3.07;;;;;;;13.56;57.26;100902.16;31314822;28;20049;-75
2023/03/13 08:04:28;;;;;;;6.03;3.33;;;;;;;14.00;52.19;100919.97;31353815;28;20107;-75
2023/03/13 08:19:30;;;;;;;3.33;2.40;;;;;;;13.76;45.04;100923.97;31306777;28;20112;-74
2023/03/13 08:34:34;;;;;;;4.20;2.80;;;;;;;14.88;44.56;100927.41;31323338;28;20048;-75
2023/03/13 08:49:35;;;;;;;3.90;2.40;;;;;;;15.48;41.64;100930.56;31339335;28;20107;-76
2023/03/13 09:04:37;;;;;;;2.70;2.00;;;;;;;16.03;37.93;100943.16;31339749;28;20112;-84
2023/03/13 09:19:39;;;;;;;3.70;1.47;;;;;;;15.84;34.40;100936.63;31326010;28;20099;-78
2023/03/13 09:34:59;;;;;;;2.60;1.50;;;;;;;16.29;34.68;100960.41;31350518;28;20060;-77
2023/03/13 09:50:10;;;;;;;2.80;1.43;;;;;;;16.44;32.78;100953.28;31322755;28;20057;-76
2023/03/13 10:05:21;;;;;;;4.17;1.60;;;;;;;17.15;32.50;100942.81;31323573;28;20057;-80
2023/03/13 10:20:32;;;;;;;3.93;1.60;;;;;;;16.66;34.42;100940.47;31334938;28;20045;-80
2023/03/13 10:35:42;;;;;;;7.57;2.17;;;;;;;17.50;31.94;100931.81;31304109;28;20080;-74
2023/03/13 10:50:47;;;;;;;2.80;1.70;;;;;;;17.39;33.16;100923.97;31340688;28;20064;-74
2023/03/13 11:05:58;;;;;;;6.97;4.37;;;;;;;17.16;32.50;100924.38;31354582;28;20045;-73
2023/03/13 11:21:02;;;;;;;1.50;1.10;;;;;;;17.49;32.15;100916.56;31369656;28;20052;-73
2023/03/13 11:36:31;;;;;;;1.97;1.40;;;;;;;17.93;32.25;100901.66;31363950;28;20049;-74
2023/03/13 11:51:54;;;;;;;2.00;1.30;;;;;;;18.29;31.61;100903.03;31353561;28;20541;-75
2023/03/13 12:07:11;;;;;;;2.95;1.40;;;;;;;18.30;31.23;100910.06;31320005;28;20056;-76
2023/03/13 12:22:34;;;;;;;2.07;1.10;;;;;;;15.95;33.43;100912.47;31368084;28;20107;-75
2023/03/13 12:38:13;;;;;;;3.60;1.80;;;;;;;13.25;37.22;100932.31;31326861;28;20482;-75
2023/03/13 12:53:52;;;;;;;3.30;1.67;;;;;;;12.32;42.63;100924.00;31379688;28;20055;-75
2023/03/13 13:08:53;;;;;;;5.30;2.10;;;;;;;12.06;43.14;100911.13;31339277;28;20399;-83
2023/03/13 13:24:47;;;;;;;5.07;1.57;;;;;;;12.10;42.87;100909.13;31358008;28;20053;-81
2023/03/13 13:39:52;;;;;;;2.40;1.70;;;;;;;11.75;43.37;100900.22;31265728;28;20053;-81
2023/03/13 13:54:56;;;;;;;2.53;1.53;;;;;;;11.66;45.43;100908.09;31313908;28;20525;-85
2023/03/13 14:10:24;;;;;;;2.73;2.10;;;;;;;11.62;44.54;100888.31;31359033;28;20049;-74
2023/03/13 14:25:27;;;;;;;2.57;1.57;;;;;;;11.21;49.22;100888.38;31358762;28;20056;-75
2023/03/13 14:40:31;;;;;;;3.07;2.00;;;;;;;11.13;50.80;100887.66;31344160;28;20104;-78
2023/03/13 14:55:35;;;;;;;1.90;1.47;;;;;;;10.93;54.18;100897.53;31323977;28;20053;-76
2023/03/13 15:10:37;;;;;;;8.57;3.37;;;;;;;10.72;54.43;100895.00;31347923;28;20053;-77
2023/03/13 15:25:39;;;;;;;3.93;1.60;;;;;;;10.55;56.48;100910.25;31341326;28;20498;-78
2023/03/13 15:40:42;;;;;;;2.67;1.70;;;;;;;10.41;57.39;100913.81;31367860;28;20057;-78
2023/03/13 15:55:46;;;;;;;4.03;1.63;;;;;;;10.19;60.52;100901.53;31359763;28;20136;-74
2023/03/13 16:10:49;;;;;;;2.67;1.80;;;;;;;10.18;61.70;100910.81;31346335;28;20045;-76
2023/03/13 16:25:51;;;;;;;5.93;2.50;;;;;;;10.04;57.99;100927.19;31361213;28;20498;-77
2023/03/13 16:40:53;;;;;;;3.93;2.53;;;;;;;9.84;63.11;100957.47;31333683;28;20065;-74
2023/03/13 16:55:55;;;;;;;15.30;5.80;;;;;;;9.74;66.72;100952.84;31326482;28;20127;-79
2023/03/13 17:11:00;;;;;;;9.57;2.60;;;;;;;9.63;69.52;100971.09;31322603;28;20045;-81
2023/03/13 17:26:01;;;;;;;9.53;3.13;;;;;;;9.49;71.34;100963.75;31336697;28;20049;-77
2023/03/13 17:41:05;;;;;;;12.33;3.20;;;;;;;8.92;66.11;100981.97;31351805;28;20080;-76
2023/03/13 17:56:15;;;;;;;6.40;3.57;;;;;;;8.90;66.84;100984.28;31304805;28;20053;-74
2023/03/13 18:11:20;;;;;;;4.77;2.93;;;;;;;8.94;66.35;101009.44;31305400;28;20048;-77
2023/03/13 18:26:29;;;;;;;4.20;2.73;;;;;;;8.78;65.02;101014.41;31349616;28;20057;-76
2023/03/13 18:41:32;;;;;;;4.07;2.60;;;;;;;8.75;65.00;101028.72;31319893;28;20052;-79
2023/03/13 18:56:34;;;;;;;3.73;1.83;;;;;;;8.67;64.83;101048.81;31350777;28;20102;-77
2023/03/13 19:11:38;;;;;;;6.27;2.87;;;;;;;8.58;64.57;101057.28;31331267;28;20045;-77
2023/03/13 19:26:45;;;;;;;9.90;3.07;;;;;;;8.28;65.33;101068.31;31307890;28;20483;-76
2023/03/13 19:41:48;;;;;;;5.07;2.30;;;;;;;7.94;65.63;101070.47;31327506;28;20099;-77
2023/03/13 19:56:50;;;;;;;4.07;2.27;;;;;;;7.79;63.88;101064.19;31321754;28;20498;-79
2023/03/13 20:11:52;;;;;;;6.93;2.03;;;;;;;7.70;63.74;101050.22;31356930;28;20049;-78
2023/03/13 20:26:54;;;;;;;3.43;2.10;;;;;;;7.67;63.65;101050.97;31383979;28;20399;-78
2023/03/13 20:41:59;;;;;;;2.97;2.00;;;;;;;7.50;64.84;101011.09;31341889;28;20057;-78
2023/03/13 20:57:03;;;;;;;4.73;2.50;;;;;;;7.32;66.67;101015.56;31350476;28;20057;-78
2023/03/13 21:12:05;;;;;;;8.67;4.03;;;;;;;7.26;69.76;101022.47;31339441;28;20041;-77
2023/03/13 21:27:10;;;;;;;10.50;5.37;;;;;;;6.96;75.17;101030.66;31360367;28;20053;-78
2023/03/13 21:42:12;;;;;;;17.53;6.30;;;;;;;6.89;77.85;101036.75;31343652;28;20045;-78
2023/03/13 21:57:15;;;;;;;15.57;6.80;;;;;;;6.76;78.99;101024.69;31314064;28;20061;-76
2023/03/13 22:12:17;;;;;;;15.97;7.93;;;;;;;6.52;77.35;101023.28;31336627;28;20060;-75
2023/03/13 22:27:19;;;;;;;15.63;6.47;;;;;;;6.05;76.13;101026.53;31303938;28;20053;-76
2023/03/13 22:42:23;;;;;;;10.30;6.10;;;;;;;5.75;75.49;101016.47;31342787;28;20594;-78
2023/03/13 22:57:25;;;;;;;8.03;3.47;;;;;;;5.45;73.86;101015.63;31323591;28;20482;-76
2023/03/13 23:12:29;;;;;;;8.50;3.87;;;;;;;5.42;73.65;101022.53;31313507;28;20084;-77
2023/03/13 23:27:31;;;;;;;7.83;3.70;;;;;;;5.37;72.81;101009.34;31320236;28;20071;-76
2023/03/13 23:42:34;;;;;;;9.77;3.90;;;;;;;5.29;73.49;101001.50;31329994;28;20052;-77
2023/03/13 23:57:36;;;;;;;8.70;3.70;;;;;;;5.21;73.53;101010.59;31351162;28;20103;-75
